Time;durP1;ratioP1;P1;durP2;ratioP2;P2;SDS_P1;SDS_P2;PMS_P1;PMS_P2;Temp;Humidity;BMP_temperature;BMP_pressure;BME280_temperature;BME280_humidity;BME280_pressure;Samples;Min_cycle;Max_cycle;Signal;HPM_P1;HPM_P2
2020/12/20 00:02:25;;;;;;;83.40;38.27;;;;;;;1.46;85.68;101571.11;5087624;58;21264;-85
2020/12/20 00:07:30;;;;;;;95.33;37.30;;;;;;;1.41;85.65;101567.30;5088565;58;21125;-85
2020/12/20 00:12:37;;;;;;;98.80;45.37;;;;;;;1.43;85.51;101573.78;5089029;58;21145;-84
2020/12/20 00:17:51;;;;;;;87.83;39.97;;;;;;;1.37;85.12;101565.67;5084202;58;21172;-84
2020/12/20 00:22:57;;;;;;;87.40;38.90;;;;;;;1.28;85.19;101567.17;5054722;58;21121;-85
2020/12/20 00:28:02;;;;;;;111.83;43.17;;;;;;;1.22;84.89;101563.39;5051699;58;21110;-84
2020/12/20 00:33:08;;;;;;;111.93;44.60;;;;;;;1.16;85.06;101557.03;5053437;59;21126;-85
2020/12/20 00:38:14;;;;;;;135.27;61.70;;;;;;;1.11;84.80;101561.92;5048281;59;21196;-84
2020/12/20 00:43:19;;;;;;;107.60;46.13;;;;;;;1.01;84.74;101567.34;5050970;59;21174;-84
2020/12/20 00:48:25;;;;;;;99.53;42.87;;;;;;;1.03;84.92;101560.80;5051962;59;21102;-84
2020/12/20 00:53:30;;;;;;;111.33;46.17;;;;;;;0.92;84.50;101571.42;5051024;59;21513;-85
2020/12/20 00:58:36;;;;;;;99.97;40.93;;;;;;;0.86;84.84;101566.80;5050020;58;21432;-84
2020/12/20 01:03:42;;;;;;;95.77;42.27;;;;;;;0.88;84.86;101572.40;5050769;58;21468;-84
2020/12/20 01:08:48;;;;;;;90.70;43.17;;;;;;;0.88;85.08;101575.00;5054547;58;21126;-84
2020/12/20 01:13:56;;;;;;;95.03;42.17;;;;;;;0.86;85.07;101579.38;5051074;59;21062;-85
2020/12/20 01:19:02;;;;;;;109.37;48.23;;;;;;;0.85;84.67;101576.36;5051815;59;21449;-84
2020/12/20 01:24:08;;;;;;;104.00;47.63;;;;;;;0.80;84.73;101574.28;5087362;58;21153;-85
2020/12/20 01:29:14;;;;;;;85.53;40.97;;;;;;;0.74;84.72;101577.03;5089252;58;21412;-85
2020/12/20 01:34:21;;;;;;;97.40;41.70;;;;;;;0.71;84.68;101574.48;5089983;58;21181;-85
2020/12/20 01:39:27;;;;;;;95.10;45.03;;;;;;;0.67;84.74;101571.52;5088746;58;21141;-85
2020/12/20 01:44:33;;;;;;;86.87;42.60;;;;;;;0.63;84.79;101573.33;5089083;58;21118;-84
2020/12/20 01:49:40;;;;;;;96.43;39.37;;;;;;;0.62;84.74;101571.61;5082556;58;21149;-84
2020/12/20 01:54:51;;;;;;;104.40;47.77;;;;;;;0.63;84.89;101575.07;5089650;58;21087;-84
2020/12/20 01:59:59;;;;;;;120.17;52.67;;;;;;;0.65;85.04;101566.34;5087684;58;21165;-85
2020/12/20 02:05:06;;;;;;;119.30;50.70;;;;;;;0.69;84.76;101560.64;5084886;58;21113;-85
2020/12/20 02:10:12;;;;;;;109.07;48.17;;;;;;;0.67;84.70;101563.27;5089782;58;21067;-84
2020/12/20 02:15:19;;;;;;;98.73;46.10;;;;;;;0.62;84.29;101555.98;5095000;58;21859;-85
2020/12/20 02:20:25;;;;;;;92.43;40.80;;;;;;;0.55;84.25;101540.09;5084004;57;21140;-85
2020/12/20 02:25:40;;;;;;;91.25;43.45;;;;;;;0.55;84.61;101537.50;4996424;59;21149;-85
2020/12/20 02:31:00;;;;;;;88.80;39.10;;;;;;;0.55;84.61;101537.50;4992212;59;21107;-84
2020/12/20 02:36:05;;;;;;;98.30;44.93;;;;;;;0.60;84.70;101543.92;4995573;59;21432;-85
2020/12/20 02:41:12;;;;;;;115.97;49.27;;;;;;;0.63;84.78;101541.23;4994825;59;21397;-85
2020/12/20 02:46:18;;;;;;;106.03;45.07;;;;;;;0.63;84.61;101540.78;4990322;59;21443;-85
2020/12/20 02:51:26;;;;;;;92.63;42.87;;;;;;;0.60;84.13;101536.11;4997192;59;21551;-85
2020/12/20 02:56:32;;;;;;;115.87;44.13;;;;;;;0.51;84.05;101525.42;4996792;59;21126;-85
2020/12/20 03:01:39;;;;;;;138.17;54.47;;;;;;;0.46;84.02;101528.55;4996697;59;21145;-84
2020/12/20 03:06:46;;;;;;;166.93;59.47;;;;;;;0.43;84.09;101521.27;4995041;59;21523;-86
2020/12/20 03:11:53;;;;;;;136.00;50.97;;;;;;;0.38;84.17;101512.69;4993746;59;21125;-85
2020/12/20 03:16:58;;;;;;;114.93;45.20;;;;;;;0.38;84.28;101517.45;4994338;59;21153;-85
2020/12/20 03:22:04;;;;;;;125.13;51.53;;;;;;;0.43;84.52;101526.48;4995637;57;21129;-85
2020/12/20 03:27:24;;;;;;;86.57;38.73;;;;;;;0.40;84.16;101520.88;4993242;59;21122;-85
2020/12/20 03:32:41;;;;;;;92.90;41.23;;;;;;;0.39;84.16;101521.77;4909741;60;21237;-85
2020/12/20 03:37:54;;;;;;;78.97;36.63;;;;;;;0.40;84.38;101526.53;4925901;60;21187;-85
2020/12/20 03:43:02;;;;;;;85.30;37.53;;;;;;;0.40;84.16;101526.53;4906262;60;21121;-85
2020/12/20 03:48:09;;;;;;;79.77;35.50;;;;;;;0.34;83.95;101515.34;4878810;60;21468;-85
2020/12/20 03:53:15;;;;;;;77.23;35.37;;;;;;;0.32;84.29;101522.77;4828303;61;21103;-85
2020/12/20 03:58:22;;;;;;;78.13;34.67;;;;;;;0.37;84.32;101527.88;4888129;60;21103;-85
2020/12/20 04:03:29;;;;;;;80.60;35.23;;;;;;;0.34;84.03;101521.84;4820655;61;21213;-85
2020/12/20 04:08:35;;;;;;;82.57;34.20;;;;;;;0.31;84.14;101532.31;4949391;59;21130;-86
2020/12/20 04:13:43;;;;;;;86.60;39.07;;;;;;;0.25;83.72;101554.56;5047843;58;21090;-85
2020/12/20 04:18:48;;;;;;;75.87;34.17;;;;;;;0.18;83.91;101557.28;5050312;59;21071;-85
2020/12/20 04:23:54;;;;;;;74.40;33.33;;;;;;;0.23;84.29;101559.37;5069373;58;21086;-85
2020/12/20 04:29:01;;;;;;;140.87;50.50;;;;;;;0.27;84.10;101555.84;5087809;58;21121;-84
2020/12/20 04:34:08;;;;;;;75.13;34.67;;;;;;;0.23;83.69;101550.27;5088783;58;21097;-85
2020/12/20 04:39:15;;;;;;;75.50;32.83;;;;;;;0.18;83.35;101542.98;5088892;57;21622;-85
2020/12/20 04:44:21;;;;;;;79.77;32.70;;;;;;;0.05;83.44;101535.84;5088567;58;21657;-85
2020/12/20 04:49:31;;;;;;;77.40;34.03;;;;;;;0.04;83.69;101541.08;5090766;57;21093;-85
2020/12/20 04:54:40;;;;;;;89.13;36.80;;;;;;;0.08;83.85;101550.55;5089681;58;21046;-85
2020/12/20 04:59:47;;;;;;;122.00;45.67;;;;;;;0.12;84.37;101546.57;5089886;58;21440;-85
2020/12/20 05:04:54;;;;;;;79.37;30.83;;;;;;;0.18;84.37;101554.24;5091379;58;21248;-85
2020/12/20 05:10:00;;;;;;;106.10;40.97;;;;;;;0.23;83.82;101552.42;5090334;58;21208;-85
2020/12/20 05:15:25;;;;;;;156.90;53.30;;;;;;;0.11;83.25;101546.16;5089718;58;21116;-85
2020/12/20 05:20:45;;;;;;;73.93;32.83;;;;;;;0.05;83.29;101546.25;5090088;58;21162;-85
2020/12/20 05:25:52;;;;;;;78.73;33.60;;;;;;;-0.05;83.22;101545.56;5081999;58;21164;-85
2020/12/20 05:31:08;;;;;;;89.37;35.10;;;;;;;-0.13;83.42;101546.56;5088286;58;21252;-85
2020/12/20 05:36:27;;;;;;;70.97;32.63;;;;;;;-0.14;83.76;101557.41;5086214;58;21276;-85
2020/12/20 05:41:37;;;;;;;69.47;30.43;;;;;;;-0.17;83.89;101556.19;5088273;58;21490;-85
2020/12/20 05:46:46;;;;;;;76.13;35.23;;;;;;;-0.17;84.03;101557.92;5090089;58;21369;-85
2020/12/20 05:52:07;;;;;;;78.50;34.50;;;;;;;-0.18;84.21;101567.47;5088710;58;21175;-84
2020/12/20 05:57:19;;;;;;;70.97;30.87;;;;;;;-0.13;84.18;101570.83;5086948;58;21365;-86
2020/12/20 06:02:25;;;;;;;232.93;128.87;;;;;;;-0.08;84.21;101579.86;5090029;58;21173;-85
2020/12/20 06:07:30;;;;;;;67.23;32.33;;;;;;;-0.07;84.18;101582.87;5090437;58;21506;-85
2020/12/20 06:12:37;;;;;;;109.30;46.93;;;;;;;-0.06;83.91;101582.86;5089146;58;21216;-85
2020/12/20 06:17:45;;;;;;;68.80;33.30;;;;;;;-0.14;83.72;101583.41;5088673;57;21082;-84
2020/12/20 06:22:57;;;;;;;69.93;30.67;;;;;;;-0.20;83.62;101583.97;5088544;58;21113;-85
2020/12/20 06:28:05;;;;;;;62.83;29.83;;;;;;;-0.24;83.80;101584.89;5090855;58;21113;-85
2020/12/20 06:33:16;;;;;;;67.83;29.50;;;;;;;-0.30;83.54;101577.18;5087209;58;21173;-85
2020/12/20 06:38:24;;;;;;;68.40;31.03;;;;;;;-0.35;83.57;101583.77;5089115;58;21118;-85
2020/12/20 06:43:36;;;;;;;59.43;28.03;;;;;;;-0.40;83.81;101585.58;5086658;58;21082;-85
2020/12/20 06:48:42;;;;;;;64.90;27.80;;;;;;;-0.42;83.79;101595.13;5088784;58;21105;-86
2020/12/20 06:53:52;;;;;;;61.27;28.43;;;;;;;-0.42;83.93;101605.09;5090570;58;21232;-86
2020/12/20 06:58:57;;;;;;;65.33;29.93;;;;;;;-0.38;84.01;101611.10;5086020;58;21283;-86
2020/12/20 07:04:04;;;;;;;70.50;29.97;;;;;;;-0.39;83.95;101605.05;5086893;58;21165;-86
2020/12/20 07:09:10;;;;;;;74.57;32.33;;;;;;;-0.35;83.94;101614.96;5088250;58;21121;-86
2020/12/20 07:14:23;;;;;;;62.33;30.30;;;;;;;-0.32;84.02;101629.66;5090159;58;21157;-86
2020/12/20 07:19:28;;;;;;;67.60;27.87;;;;;;;-0.25;84.16;101624.33;4973793;59;21171;-86
2020/12/20 07:24:35;;;;;;;75.50;32.10;;;;;;;-0.26;83.49;101626.95;5088516;57;21470;-87
2020/12/20 07:29:41;;;;;;;65.73;29.23;;;;;;;-0.33;83.52;101626.20;5090059;57;21145;-83
2020/12/20 07:34:49;;;;;;;70.93;32.53;;;;;;;-0.28;83.84;101626.11;5088243;58;21102;-82
2020/12/20 07:40:06;;;;;;;79.33;32.07;;;;;;;-0.22;84.15;101626.88;5088688;58;21168;-84
2020/12/20 07:45:13;;;;;;;69.17;32.83;;;;;;;-0.14;84.04;101623.70;5089998;58;21133;-84
2020/12/20 07:50:27;;;;;;;70.93;34.20;;;;;;;-0.12;83.98;101616.75;5090096;57;21115;-84
2020/12/20 07:55:35;;;;;;;66.65;31.73;;;;;;;-0.06;83.90;101618.40;5087699;58;21451;-83
2020/12/20 08:00:44;;;;;;;87.90;37.57;;;;;;;0.09;84.17;101614.24;5090576;58;21110;-85
2020/12/20 08:05:50;;;;;;;75.73;35.17;;;;;;;0.21;84.52;101617.92;5089068;58;21256;-84
2020/12/20 08:10:56;;;;;;;81.77;41.23;;;;;;;0.43;84.69;101631.87;5090164;58;21105;-84
2020/12/20 08:16:01;;;;;;;67.97;33.03;;;;;;;0.58;83.94;101630.29;5089131;58;21200;-85
2020/12/20 08:21:09;;;;;;;50.17;25.77;;;;;;;0.68;84.02;101631.81;5089983;57;21215;-85
2020/12/20 08:26:31;;;;;;;63.57;31.07;;;;;;;0.85;83.81;101632.35;5089389;58;21133;-84
2020/12/20 08:31:37;;;;;;;89.97;40.07;;;;;;;0.95;83.66;101638.22;5080429;58;21146;-84
2020/12/20 08:36:49;;;;;;;108.03;57.03;;;;;;;0.98;83.74;101644.68;5089553;58;21418;-84
2020/12/20 08:42:10;;;;;;;78.63;35.77;;;;;;;1.13;83.83;101648.72;5091508;58;21133;-85
2020/12/20 08:47:21;;;;;;;86.57;41.00;;;;;;;1.20;83.55;101649.88;5088225;58;21133;-83
2020/12/20 08:52:31;;;;;;;86.33;41.80;;;;;;;1.29;83.82;101648.38;5090939;58;21145;-85
2020/12/20 08:57:37;;;;;;;56.57;28.40;;;;;;;1.38;83.33;101647.30;5087027;58;21283;-84
2020/12/20 09:02:43;;;;;;;60.87;28.83;;;;;;;1.43;82.94;101635.03;5087861;58;21067;-86
2020/12/20 09:07:49;;;;;;;58.50;30.47;;;;;;;1.50;83.54;101640.54;5088283;58;21464;-85
2020/12/20 09:13:07;;;;;;;78.77;33.73;;;;;;;1.52;82.39;101636.16;5089708;58;21122;-85
2020/12/20 09:18:21;;;;;;;84.47;34.63;;;;;;;1.47;82.42;101637.13;5089803;58;21090;-84
2020/12/20 09:23:27;;;;;;;79.90;33.57;;;;;;;1.41;83.07;101640.28;5068132;58;21141;-84
2020/12/20 09:28:40;;;;;;;76.80;35.77;;;;;;;1.41;83.03;101631.59;5056837;58;21137;-84
2020/12/20 09:34:01;;;;;;;75.50;34.73;;;;;;;1.47;83.42;101636.69;5051896;58;21132;-84
2020/12/20 09:39:06;;;;;;;66.57;32.10;;;;;;;1.53;83.60;101643.05;5045087;59;21067;-85
2020/12/20 09:44:11;;;;;;;60.87;28.57;;;;;;;1.57;83.45;101646.45;5051356;59;21370;-85
2020/12/20 09:49:17;;;;;;;62.10;27.80;;;;;;;1.60;83.46;101639.42;5047703;59;21121;-85
2020/12/20 09:54:23;;;;;;;57.77;27.90;;;;;;;1.68;83.39;101637.97;5050698;58;21134;-85
2020/12/20 09:59:28;;;;;;;61.40;29.10;;;;;;;1.66;83.28;101635.84;5048138;59;21123;-85
2020/12/20 10:04:34;;;;;;;61.57;29.63;;;;;;;1.67;83.39;101637.11;5054789;58;21171;-85
2020/12/20 10:09:40;;;;;;;64.57;32.63;;;;;;;1.73;83.16;101627.81;5046172;58;21149;-84
2020/12/20 10:14:45;;;;;;;64.53;32.67;;;;;;;1.73;83.30;101626.95;5052335;59;21448;-85
2020/12/20 10:19:51;;;;;;;54.67;29.60;;;;;;;1.73;83.41;101623.91;5051282;59;21485;-84
2020/12/20 10:24:56;;;;;;;57.67;29.20;;;;;;;1.80;83.29;101632.45;5049134;59;21130;-85
2020/12/20 10:30:02;;;;;;;101.93;52.57;;;;;;;1.83;83.05;101628.92;5089161;58;21118;-84
2020/12/20 10:35:07;;;;;;;73.20;35.67;;;;;;;1.82;83.16;101627.20;5091219;58;21228;-85
2020/12/20 10:40:13;;;;;;;71.77;32.93;;;;;;;1.82;83.39;101625.45;5089008;58;21571;-85
2020/12/20 10:45:23;;;;;;;139.57;64.80;;;;;;;1.90;83.53;101613.08;5086356;58;21109;-85
2020/12/20 10:50:29;;;;;;;76.33;34.23;;;;;;;1.99;83.54;101618.05;5086491;58;21164;-85
2020/12/20 10:55:34;;;;;;;65.77;32.40;;;;;;;2.00;83.44;101617.16;5067561;58;1134181;-85
2020/12/20 11:00:40;;;;;;;59.53;30.10;;;;;;;2.06;83.52;101613.11;4992131;57;1138333;-85
2020/12/20 11:05:47;;;;;;;77.93;39.60;;;;;;;2.10;83.32;101614.75;5013419;57;1138366;-85
2020/12/20 11:17:18;;;;;;;91.57;44.27;;;;;;;2.26;83.85;101611.30;4888869;59;1138571;-85
2020/12/20 11:22:24;;;;;;;80.73;37.47;;;;;;;2.39;83.61;101609.22;4876554;59;1138543;-85
2020/12/20 11:27:29;;;;;;;78.40;37.47;;;;;;;2.43;83.14;101619.55;4876989;59;1138849;-85
2020/12/20 11:32:36;;;;;;;88.10;41.90;;;;;;;2.42;82.96;101609.16;4895075;59;1138664;-85
2020/12/20 11:37:41;;;;;;;152.20;62.80;;;;;;;2.37;83.18;101605.34;4887467;59;1138915;-85
2020/12/20 11:42:47;;;;;;;144.87;62.90;;;;;;;2.37;83.20;101600.13;4864385;59;1140509;-85
2020/12/20 11:47:53;;;;;;;130.30;58.70;;;;;;;2.40;83.63;101589.61;5018757;58;1140522;-85
2020/12/20 11:52:58;;;;;;;72.93;35.77;;;;;;;2.46;83.91;101585.51;4991192;57;1141040;-86
2020/12/20 11:58:08;;;;;;;115.73;56.13;;;;;;;2.47;83.36;101588.53;5029796;57;1138228;-86
2020/12/20 12:03:13;;;;;;;76.87;37.55;;;;;;;2.53;83.40;101592.73;5025751;57;1149981;-87
2020/12/20 12:08:19;;;;;;;73.57;34.63;;;;;;;2.54;83.32;101585.31;4982187;57;1138705;-85
2020/12/20 12:13:25;;;;;;;69.22;33.83;;;;;;;2.54;83.45;101586.62;5052158;56;1138318;-85
2020/12/20 12:18:30;;;;;;;169.33;81.83;;;;;;;2.58;83.49;101577.81;5010003;57;1138689;-84
2020/12/20 12:23:36;;;;;;;110.67;56.23;;;;;;;2.62;83.40;101583.33;5010493;58;1140332;-85
2020/12/20 12:28:41;;;;;;;87.77;45.20;;;;;;;2.57;83.35;101576.55;4977940;57;1140442;-85
2020/12/20 12:33:47;;;;;;;92.40;45.53;;;;;;;2.54;83.46;101568.34;4947100;58;1138959;-85
2020/12/20 12:38:55;;;;;;;68.07;36.73;;;;;;;2.60;83.52;101572.07;4954536;58;1138317;-85
2020/12/20 12:44:00;;;;;;;88.53;44.70;;;;;;;2.67;83.10;101559.70;4953646;58;1138221;-85
2020/12/20 12:49:05;;;;;;;74.73;40.23;;;;;;;2.70;82.86;101563.09;4952682;58;1138313;-85
2020/12/20 12:54:11;;;;;;;69.47;35.77;;;;;;;2.62;82.56;101568.97;4949695;58;1138319;-84
2020/12/20 12:59:17;;;;;;;105.13;50.63;;;;;;;2.54;82.68;101575.32;4954394;58;1138564;-85
2020/12/20 13:04:23;;;;;;;82.80;41.77;;;;;;;2.57;82.98;101563.04;4968916;58;1140388;-85
2020/12/20 13:09:28;;;;;;;94.90;47.60;;;;;;;2.68;82.99;101558.36;4950925;58;1138776;-84
2020/12/20 13:14:34;;;;;;;85.53;43.10;;;;;;;2.74;82.90;101546.89;4971255;58;1138750;-84
2020/12/20 13:19:39;;;;;;;86.33;40.83;;;;;;;2.82;82.58;101542.29;4948818;58;1139093;-85
2020/12/20 13:24:45;;;;;;;79.10;35.93;;;;;;;2.94;82.18;101530.61;4951861;58;1140356;-85
2020/12/20 13:29:51;;;;;;;318.70;112.37;;;;;;;2.96;82.18;101547.10;4957552;57;1138453;-85
2020/12/20 13:34:57;;;;;;;63.57;31.50;;;;;;;2.93;82.60;101568.09;5000768;56;1142932;-85
2020/12/20 13:40:02;;;;;;;132.43;44.37;;;;;;;2.88;82.50;101570.86;4987547;57;1138536;-85
2020/12/20 13:45:09;;;;;;;86.63;36.70;;;;;;;2.84;82.61;101573.14;4902771;57;1142426;-85
2020/12/20 13:50:14;;;;;;;97.50;42.50;;;;;;;2.76;82.58;101563.35;4955546;57;1138713;-85
2020/12/20 13:55:20;;;;;;;230.07;65.17;;;;;;;2.65;82.78;101557.14;4954571;57;1138422;-85
2020/12/20 14:00:26;;;;;;;67.20;32.73;;;;;;;2.59;82.90;101553.86;4912490;57;1140407;-84
2020/12/20 14:05:32;;;;;;;64.63;31.87;;;;;;;2.55;82.89;101544.39;4742611;60;1140662;-85
2020/12/20 14:10:38;;;;;;;62.47;30.03;;;;;;;2.56;83.01;101545.66;4897409;58;1138272;-85
2020/12/20 14:15:44;;;;;;;61.50;31.60;;;;;;;2.48;83.25;101552.83;4947019;57;1138667;-88
2020/12/20 14:20:49;;;;;;;67.97;34.77;;;;;;;2.46;83.41;101549.41;5080680;57;1138320;-87
2020/12/20 14:25:55;;;;;;;80.77;33.90;;;;;;;2.43;83.40;101547.76;5090074;56;1138662;-87
2020/12/20 14:31:00;;;;;;;78.40;36.08;;;;;;;2.36;83.67;101541.42;5076033;56;1138765;-87
2020/12/20 14:36:08;;;;;;;70.80;34.73;;;;;;;2.28;83.99;101548.18;5059229;57;1138282;-87
2020/12/20 14:41:15;;;;;;;55.58;29.12;;;;;;;2.20;84.43;101539.68;5055122;57;1147889;-86
2020/12/20 14:46:20;;;;;;;63.28;33.38;;;;;;;2.18;84.01;101541.92;5097688;56;1138458;-89
2020/12/20 14:51:26;;;;;;;66.83;31.90;;;;;;;2.18;84.22;101551.91;5070345;57;1138784;-91
2020/12/20 14:56:31;;;;;;;73.40;34.85;;;;;;;2.11;84.40;101552.98;5073852;56;1139159;-91
2020/12/20 15:01:37;;;;;;;53.93;27.10;;;;;;;2.07;84.26;101548.73;5070358;56;1138351;-88
2020/12/20 15:06:42;;;;;;;68.73;32.57;;;;;;;2.05;84.48;101546.16;5066168;56;1138465;-89
2020/12/20 15:11:48;;;;;;;74.90;37.13;;;;;;;2.03;84.31;101544.48;5043378;56;1138727;-89
2020/12/20 15:16:56;;;;;;;55.07;25.67;;;;;;;1.97;84.42;101555.09;5070178;56;1138252;-89
2020/12/20 15:22:01;;;;;;;65.33;32.90;;;;;;;1.96;84.44;101557.30;5098423;56;1138328;-89
2020/12/20 15:27:07;;;;;;;226.17;117.93;;;;;;;1.96;84.61;101554.69;5096376;56;1138624;-89
2020/12/20 15:32:13;;;;;;;61.10;35.23;;;;;;;1.94;84.56;101550.81;5046886;57;1142813;-90
2020/12/20 15:37:18;;;;;;;62.83;27.97;;;;;;;1.91;84.68;101554.79;5071666;57;1138483;-89
2020/12/20 15:42:24;;;;;;;57.73;27.10;;;;;;;1.89;84.52;101554.41;5044743;56;1138270;-89
2020/12/20 15:47:31;;;;;;;68.17;31.75;;;;;;;1.90;84.61;101550.47;5042906;56;1138280;-89
2020/12/20 15:52:37;;;;;;;156.73;72.83;;;;;;;1.88;84.53;101554.00;5044818;57;1138296;-89
2020/12/20 15:57:42;;;;;;;216.73;88.47;;;;;;;1.81;84.43;101554.63;5074874;56;1140426;-90
2020/12/20 16:02:48;;;;;;;447.47;159.27;;;;;;;1.78;84.37;101553.84;5077101;56;1140468;-89
2020/12/20 16:07:53;;;;;;;331.57;123.67;;;;;;;1.76;84.20;101553.88;4963441;58;1142522;-90
2020/12/20 16:12:59;;;;;;;204.50;82.90;;;;;;;1.73;84.18;101550.89;4926902;58;1142462;-89
2020/12/20 16:18:05;;;;;;;210.60;82.77;;;;;;;1.69;84.26;101551.84;4876083;58;1140749;-89
2020/12/20 16:23:11;;;;;;;213.90;78.07;;;;;;;1.67;84.35;101552.36;5094081;56;1140451;-90
2020/12/20 16:28:16;;;;;;;137.65;58.02;;;;;;;1.68;84.13;101550.13;5076731;56;1141041;-89
2020/12/20 16:33:22;;;;;;;261.93;94.90;;;;;;;1.68;84.12;101538.40;5007518;56;1140653;-90
2020/12/20 16:38:28;;;;;;;437.80;162.23;;;;;;;1.66;84.22;101535.00;5097838;56;1140502;-89
2020/12/20 16:43:33;;;;;;;459.50;169.43;;;;;;;1.64;84.29;101538.09;5050345;56;1143005;-87
2020/12/20 16:48:40;;;;;;;648.97;245.03;;;;;;;1.67;84.11;101535.86;5058560;56;1142419;-87
2020/12/20 16:53:47;;;;;;;394.40;146.37;;;;;;;1.69;84.17;101538.81;5049520;56;1142541;-87
2020/12/20 16:58:52;;;;;;;128.10;54.30;;;;;;;1.53;83.10;101548.37;5049533;57;1142571;-86
2020/12/20 17:03:58;;;;;;;134.30;49.83;;;;;;;1.53;83.10;101548.37;5095825;56;1140270;-86
2020/12/20 17:09:03;;;;;;;147.87;63.47;;;;;;;1.54;83.52;101556.58;5050094;56;1140349;-87
2020/12/20 17:14:09;;;;;;;495.80;222.27;;;;;;;1.52;83.35;101551.87;5120484;56;1138196;-87
2020/12/20 17:19:15;;;;;;;411.90;166.07;;;;;;;1.44;83.33;101549.43;5117094;56;1143151;-87
2020/12/20 17:24:20;;;;;;;429.07;160.17;;;;;;;1.39;83.25;101544.31;5082130;56;1142463;-87
2020/12/20 17:29:26;;;;;;;250.30;96.53;;;;;;;1.39;83.15;101546.92;5096199;56;1142922;-87
2020/12/20 17:34:31;;;;;;;1966.75;559.77;;;;;;;1.38;83.38;101543.91;5109051;56;1140450;-87
2020/12/20 17:39:37;;;;;;;1475.97;478.67;;;;;;;1.34;83.30;101537.07;5064522;56;1144762;-88
2020/12/20 17:44:42;;;;;;;934.97;268.67;;;;;;;1.33;82.98;101550.13;5058338;56;1144711;-88
2020/12/20 17:49:48;;;;;;;561.92;227.15;;;;;;;1.24;82.71;101543.36;5093690;57;1142439;-88
2020/12/20 17:54:53;;;;;;;599.17;219.73;;;;;;;1.19;82.91;101545.69;5044830;56;1142457;-90
2020/12/20 17:59:59;;;;;;;703.67;260.90;;;;;;;1.14;82.83;101541.87;5084211;56;1142484;-89
2020/12/20 18:05:06;;;;;;;569.00;200.27;;;;;;;1.08;82.81;101532.02;5051828;56;1142668;-90
2020/12/20 18:10:11;;;;;;;248.17;99.33;;;;;;;1.00;82.88;101521.78;5082361;56;1142374;-90
2020/12/20 18:15:17;;;;;;;208.43;79.43;;;;;;;0.90;83.02;101517.68;5056772;56;1140580;-88
2020/12/20 18:20:23;;;;;;;212.35;86.35;;;;;;;0.88;83.51;101512.95;5091335;56;1140424;-89
2020/12/20 18:25:28;;;;;;;260.20;91.53;;;;;;;0.84;83.79;101513.45;5055019;56;1140607;-87
2020/12/20 18:30:34;;;;;;;612.67;218.37;;;;;;;0.83;84.35;101515.64;5057356;56;1141054;-89
2020/12/20 18:35:39;;;;;;;546.63;222.93;;;;;;;0.87;84.57;101516.00;5058218;56;1142859;-89
2020/12/20 18:40:45;;;;;;;356.70;156.83;;;;;;;0.91;84.48;101522.00;5116585;57;1140443;-88
2020/12/20 18:45:52;;;;;;;233.93;88.73;;;;;;;0.92;84.59;101515.88;5124180;57;1142877;-89
2020/12/20 18:50:58;;;;;;;192.87;79.37;;;;;;;0.94;84.52;101504.53;5054589;57;1140358;-89
2020/12/20 18:56:12;;;;;;;167.93;67.57;;;;;;;0.98;84.42;101513.14;5051528;57;1140459;-88
2020/12/20 19:01:39;;;;;;;109.63;40.63;;;;;;;0.95;84.48;101508.86;5071758;57;1140267;-88
2020/12/20 19:06:42;;;;;;;105.63;37.10;;;;;;;0.91;84.56;101507.23;5060810;56;1140824;-88
2020/12/20 19:11:48;;;;;;;111.17;44.67;;;;;;;0.93;84.45;101505.42;5106800;56;1140307;-89
2020/12/20 19:17:00;;;;;;;266.30;89.67;;;;;;;0.93;84.53;101509.77;5107634;56;1140816;-89
2020/12/20 19:22:05;;;;;;;149.10;58.40;;;;;;;0.87;84.53;101508.19;5053751;56;1140485;-89
2020/12/20 19:27:10;;;;;;;117.83;42.80;;;;;;;0.84;84.58;101517.36;5112246;57;1138199;-88
2020/12/20 19:32:16;;;;;;;98.40;40.70;;;;;;;0.81;84.57;101516.12;5068186;56;1140827;-89
2020/12/20 19:37:22;;;;;;;98.23;38.93;;;;;;;0.79;84.87;101510.52;5064710;57;1138690;-88
2020/12/20 19:42:28;;;;;;;84.15;34.73;;;;;;;0.75;85.14;101524.08;5055105;56;1138889;-89
2020/12/20 19:47:36;;;;;;;107.63;46.03;;;;;;;0.77;85.01;101512.30;5063083;56;1138563;-89
2020/12/20 19:52:41;;;;;;;118.63;48.60;;;;;;;0.79;84.86;101519.64;5048800;56;1140818;-89
2020/12/20 19:57:47;;;;;;;105.93;40.20;;;;;;;0.79;84.97;101526.14;5067294;56;1140889;-89
2020/12/20 20:02:53;;;;;;;80.03;36.30;;;;;;;0.81;84.86;101529.13;5056254;56;1140825;-89
2020/12/20 20:07:58;;;;;;;125.87;52.37;;;;;;;0.82;84.87;101536.06;5064115;56;1138306;-89
2020/12/20 20:13:04;;;;;;;107.90;41.37;;;;;;;0.79;84.85;101535.26;5057007;56;1140491;-89
2020/12/20 20:18:10;;;;;;;441.53;175.60;;;;;;;0.75;84.67;101533.19;5072100;56;1140372;-91
2020/12/20 20:23:15;;;;;;;130.77;49.00;;;;;;;0.73;84.91;101535.41;5054187;56;1143450;-88
2020/12/20 20:28:22;;;;;;;102.45;42.35;;;;;;;0.69;84.81;101535.91;5079845;56;1140427;-89
2020/12/20 20:33:27;;;;;;;111.23;44.83;;;;;;;0.64;85.13;101535.13;5084906;56;1140385;-89
2020/12/20 20:38:34;;;;;;;97.70;39.63;;;;;;;0.64;84.93;101536.44;5060334;56;1140667;-89
2020/12/20 20:43:39;;;;;;;131.95;49.58;;;;;;;0.62;85.04;101523.89;4971701;57;1138375;-89
2020/12/20 20:48:50;;;;;;;92.97;36.20;;;;;;;0.61;85.54;101536.05;4948079;57;1140612;-90
2020/12/20 20:53:56;;;;;;;75.80;33.23;;;;;;;0.59;85.43;101530.48;4997415;57;1138410;-90
2020/12/20 20:59:03;;;;;;;103.27;44.23;;;;;;;0.60;85.43;101543.47;4974565;57;1138562;-87
2020/12/20 21:04:08;;;;;;;93.80;38.10;;;;;;;0.59;85.61;101543.06;4975520;57;1140471;-85
2020/12/20 21:09:14;;;;;;;81.60;30.90;;;;;;;0.61;85.43;101547.77;5007377;57;1138390;-85
2020/12/20 21:14:19;;;;;;;109.97;49.42;;;;;;;0.63;85.54;101539.92;4965524;57;1138760;-85
2020/12/20 21:19:25;;;;;;;66.90;31.40;;;;;;;0.61;85.82;101534.75;5009233;57;1140511;-86
2020/12/20 21:24:31;;;;;;;70.50;31.27;;;;;;;0.58;85.91;101535.28;4971661;57;1138512;-86
2020/12/20 21:29:36;;;;;;;75.42;29.55;;;;;;;0.59;85.73;101536.55;5000077;57;1138446;-85
2020/12/20 21:34:42;;;;;;;63.60;26.30;;;;;;;0.63;85.61;101536.88;4985328;57;1138455;-85
2020/12/20 21:39:48;;;;;;;71.72;30.65;;;;;;;0.60;86.13;101538.71;5027645;57;1136391;-86
2020/12/20 21:44:54;;;;;;;66.27;27.70;;;;;;;0.64;85.61;101538.59;5029570;57;1138583;-85
2020/12/20 21:50:02;;;;;;;64.85;27.85;;;;;;;0.66;85.50;101530.76;5052009;57;1138353;-86
2020/12/20 21:55:09;;;;;;;73.35;31.35;;;;;;;0.65;85.48;101539.02;5088454;57;1138599;-85
2020/12/20 22:00:14;;;;;;;66.80;27.73;;;;;;;0.60;85.38;101543.47;5076178;57;1138324;-85
2020/12/20 22:05:24;;;;;;;63.97;28.27;;;;;;;0.60;85.37;101543.47;5107623;57;1136633;-86
2020/12/20 22:10:27;;;;;;;75.10;33.57;;;;;;;0.61;85.21;101549.06;5059209;57;1138762;-86
2020/12/20 22:15:33;;;;;;;99.37;42.33;;;;;;;0.55;85.32;101539.23;5069025;57;1138336;-86
2020/12/20 22:20:38;;;;;;;87.55;39.15;;;;;;;0.51;85.40;101534.97;5056963;57;1138838;-86
2020/12/20 22:25:45;;;;;;;67.80;29.30;;;;;;;0.47;85.40;101533.31;5061984;57;1138508;-86
2020/12/20 22:30:51;;;;;;;74.62;33.02;;;;;;;0.45;85.50;101533.81;5067388;57;1138413;-86
2020/12/20 22:35:56;;;;;;;75.70;32.27;;;;;;;0.42;85.55;101523.02;5079601;57;1138247;-85
2020/12/20 22:41:02;;;;;;;73.57;32.80;;;;;;;0.41;85.69;101517.39;5045970;57;1138301;-85
2020/12/20 22:46:07;;;;;;;57.10;24.57;;;;;;;0.40;85.67;101523.48;5068045;57;1138327;-85
2020/12/20 22:51:13;;;;;;;55.47;24.03;;;;;;;0.40;85.73;101535.19;5060408;57;1138424;-85
2020/12/20 22:56:21;;;;;;;58.27;24.50;;;;;;;0.44;85.66;101533.40;5068331;57;1138420;-86
2020/12/20 23:01:26;;;;;;;63.07;26.37;;;;;;;0.44;85.59;101537.30;5047069;57;1138791;-86
2020/12/20 23:06:32;;;;;;;53.13;24.90;;;;;;;0.46;85.65;101540.27;5080380;57;1138557;-86
2020/12/20 23:11:38;;;;;;;56.63;23.52;;;;;;;0.48;85.38;101549.34;5113718;57;1138383;-85